Time;durP1;ratioP1;P1;durP2;ratioP2;P2;SDS_P1;SDS_P2;PMS_P1;PMS_P2;Temp;Humidity;BMP_temperature;BMP_pressure;BME280_temperature;BME280_humidity;BME280_pressure;Samples;Min_cycle;Max_cycle;Signal;HPM_P1;HPM_P2
2022/08/18 00:02:24;;;;;;;10.40;7.40;;;563.50;2432.00;;;;;;4959744;28;20019;-87
2022/08/18 00:04:51;;;;;;;12.52;7.85;;;563.70;2432.00;;;;;;4959873;28;20034;-85
2022/08/18 00:07:23;;;;;;;11.00;7.47;;;563.70;2432.00;;;;;;4959633;28;20380;-88
2022/08/18 00:09:50;;;;;;;;;;;563.80;2432.00;;;;;;4959995;28;20045;-86
2022/08/18 00:12:24;;;;;;;11.95;6.95;;;563.80;2432.00;;;;;;4959167;28;19914;-87
2022/08/18 00:14:51;;;;;;;11.23;6.93;;;563.90;2432.00;;;;;;4959637;28;20404;-86
2022/08/18 00:17:18;;;;;;;14.00;7.88;;;563.90;2432.00;;;;;;4958350;28;20404;-87
2022/08/18 00:19:44;;;;;;;13.13;7.15;;;563.80;2432.00;;;;;;4940683;29;20381;-87
2022/08/18 00:22:13;;;;;;;13.75;7.93;;;563.70;2432.00;;;;;;4940226;29;20056;-88
2022/08/18 00:24:39;;;;;;;11.93;7.45;;;563.50;2432.00;;;;;;4940085;29;20023;-88
2022/08/18 00:27:06;;;;;;;11.07;6.95;;;538.50;2406.40;;;;;;4939975;29;20056;-85
2022/08/18 00:29:32;;;;;;;9.50;7.60;;;538.40;2406.40;;;;;;4939912;29;20015;-88
2022/08/18 00:31:58;;;;;;;9.63;7.32;;;538.20;2406.40;;;;;;4947949;28;20054;-85
2022/08/18 00:34:24;;;;;;;13.23;9.43;;;538.30;2406.40;;;;;;4959176;28;20027;-87
2022/08/18 00:36:50;;;;;;;11.75;8.70;;;538.00;2406.40;;;;;;4959238;28;20033;-87
2022/08/18 00:39:16;;;;;;;12.02;8.95;;;538.40;2406.40;;;;;;4949566;29;20114;-87
2022/08/18 00:41:42;;;;;;;11.13;8.02;;;538.40;2406.40;;;;;;4939728;29;20109;-88
2022/08/18 00:44:09;;;;;;;12.40;7.57;;;538.50;2406.40;;;;;;4939970;29;20074;-83
2022/08/18 00:46:37;;;;;;;13.90;7.95;;;563.20;2432.00;;;;;;4939379;29;20061;-86
2022/08/18 00:49:04;;;;;;;15.90;7.97;;;538.50;2406.40;;;;;;4939464;29;20020;-85
2022/08/18 00:51:43;;;;;;;10.23;7.30;;;538.50;2406.40;;;;;;4939466;29;20034;-87
2022/08/18 00:54:24;;;;;;;11.95;7.47;;;563.20;2432.00;;;;;;4939533;29;20059;-85
2022/08/18 00:56:54;;;;;;;13.50;7.70;;;538.40;2406.40;;;;;;4939503;29;20476;-86
2022/08/18 00:59:30;;;;;;;9.30;7.50;;;538.50;2406.40;;;;;;4951254;28;20460;-86
2022/08/18 01:02:01;;;;;;;9.43;7.70;;;538.50;2406.40;;;;;;4949719;28;20047;-88
2022/08/18 01:04:43;;;;;;;11.18;7.63;;;538.40;2406.40;;;;;;4942036;29;20019;-89
2022/08/18 01:07:34;;;;;;;13.68;7.57;;;538.50;2406.40;;;;;;4939393;29;20023;-86
2022/08/18 01:10:02;;;;;;;9.95;7.47;;;538.50;2406.40;;;;;;4939581;29;20373;-88
2022/08/18 01:12:28;;;;;;;10.98;8.60;;;538.50;2406.40;;;;;;4938917;29;20054;-87
2022/08/18 01:14:55;;;;;;;11.30;7.97;;;538.50;2406.40;;;;;;4939204;29;20019;-88
2022/08/18 01:23:03;;;;;;;12.30;9.10;;;538.50;2406.40;;;;;;4964217;29;20132;-85
2022/08/18 01:28:19;;;;;;;10.13;7.63;;;538.50;2406.40;;;;;;4956527;28;20425;-88
2022/08/18 01:30:56;;;;;;;12.27;8.23;;;538.50;2406.40;;;;;;4943085;29;20023;-88
2022/08/18 01:33:31;;;;;;;15.02;7.88;;;538.40;2406.40;;;;;;4943192;29;20025;-87
2022/08/18 01:36:08;;;;;;;13.20;8.80;;;538.50;2406.40;;;;;;4943292;29;20457;-88
2022/08/18 01:38:34;;;;;;;9.57;7.93;;;538.50;2406.40;;;;;;4943080;29;20055;-86
2022/08/18 01:41:00;;;;;;;14.02;8.10;;;538.50;2406.40;;;;;;4942724;29;20085;-87
2022/08/18 01:43:27;;;;;;;13.02;7.78;;;538.40;2406.40;;;;;;4943109;29;20042;-87
2022/08/18 01:45:53;;;;;;;14.15;8.48;;;538.40;2406.40;;;;;;4943297;29;20452;-88
2022/08/18 01:48:19;;;;;;;11.95;8.00;;;538.40;2406.40;;;;;;4943025;29;20071;-87
2022/08/18 01:50:48;;;;;;;13.25;7.63;;;538.30;2406.40;;;;;;4943018;29;20023;-88
2022/08/18 01:53:14;;;;;;;15.02;8.27;;;538.30;2406.40;;;;;;4943025;29;20059;-91
2022/08/18 01:55:44;;;;;;;13.90;7.60;;;538.30;2406.40;;;;;;4942854;29;20035;-88
2022/08/18 01:58:11;;;;;;;22.48;8.82;;;538.20;2406.40;;;;;;4942621;29;20106;-87
2022/08/18 02:00:37;;;;;;;12.13;9.05;;;538.10;2406.40;;;;;;4942610;29;20114;-90
2022/08/18 02:03:10;;;;;;;15.65;7.82;;;538.20;2406.40;;;;;;4942818;29;20099;-88
2022/08/18 02:05:40;;;;;;;11.23;8.80;;;538.10;2406.40;;;;;;4942911;29;20030;-87
2022/08/18 02:08:07;;;;;;;12.65;8.57;;;538.00;2406.40;;;;;;4962928;28;20042;-89
2022/08/18 02:10:33;;;;;;;10.98;7.72;;;537.90;2406.40;;;;;;4966622;28;20014;-87
2022/08/18 02:12:59;;;;;;;9.32;7.95;;;538.10;2406.40;;;;;;4962413;29;20055;-87
2022/08/18 02:15:26;;;;;;;11.70;7.68;;;538.10;2406.40;;;;;;4942613;29;20019;-89
2022/08/18 02:17:53;;;;;;;14.48;7.88;;;538.10;2406.40;;;;;;4942986;29;20027;-87
2022/08/18 02:20:19;;;;;;;15.85;7.80;;;538.30;2406.40;;;;;;4942404;29;20059;-87
2022/08/18 02:22:46;;;;;;;12.80;8.52;;;538.20;2406.40;;;;;;4942463;29;20023;-86
2022/08/18 02:25:14;;;;;;;11.05;7.90;;;538.10;2406.40;;;;;;4942876;29;20023;-86
2022/08/18 02:27:40;;;;;;;14.27;8.07;;;538.00;2406.40;;;;;;4942379;29;20027;-88
2022/08/18 02:30:10;;;;;;;11.38;8.25;;;538.10;2406.40;;;;;;4942171;29;20027;-88
2022/08/18 02:32:37;;;;;;;10.40;8.35;;;538.10;2406.40;;;;;;4942269;29;20364;-88
2022/08/18 02:35:05;;;;;;;12.57;7.65;;;538.00;2406.40;;;;;;4942168;29;20030;-89
2022/08/18 02:37:31;;;;;;;11.45;8.45;;;538.00;2406.40;;;;;;4942167;29;20118;-86
2022/08/18 02:39:57;;;;;;;13.88;8.57;;;537.90;2406.40;;;;;;4941742;28;20412;-88
2022/08/18 02:42:24;;;;;;;13.38;8.02;;;538.20;2406.40;;;;;;4941240;29;20059;-86
2022/08/18 02:44:50;;;;;;;8.95;7.70;;;538.00;2406.40;;;;;;4942037;29;20077;-87
2022/08/18 02:47:20;;;;;;;16.27;9.32;;;537.90;2406.40;;;;;;4941842;29;20019;-89
2022/08/18 02:49:47;;;;;;;10.90;7.43;;;537.80;2406.40;;;;;;4941865;29;20421;-87
2022/08/18 02:52:13;;;;;;;11.00;8.23;;;537.80;2406.40;;;;;;4941545;29;20019;-84
2022/08/18 02:55:03;;;;;;;9.35;8.40;;;537.80;2406.40;;;;;;4949037;28;20023;-87
2022/08/18 02:57:30;;;;;;;10.65;8.82;;;537.70;2406.40;;;;;;4960666;28;20109;-85
2022/08/18 02:59:56;;;;;;;11.23;8.65;;;537.60;2406.40;;;;;;4956872;28;20040;-86
2022/08/18 03:02:22;;;;;;;14.15;8.07;;;512.50;2380.80;;;;;;4951936;29;20070;-87
2022/08/18 03:04:50;;;;;;;12.70;8.63;;;512.80;2380.80;;;;;;4950825;28;20059;-86
2022/08/18 03:07:16;;;;;;;10.85;8.55;;;512.90;2380.80;;;;;;4941477;29;20342;-87
2022/08/18 03:09:42;;;;;;;12.18;8.68;;;537.70;2406.40;;;;;;4941541;29;20027;-86
2022/08/18 03:12:09;;;;;;;13.35;9.23;;;537.80;2406.40;;;;;;4950779;28;20046;-86
2022/08/18 03:14:38;;;;;;;11.68;9.70;;;537.70;2406.40;;;;;;4956463;29;20094;-87
2022/08/18 03:17:07;;;;;;;9.50;7.97;;;537.70;2406.40;;;;;;4941473;29;20421;-85
2022/08/18 03:19:33;;;;;;;12.20;8.15;;;537.60;2406.40;;;;;;4950774;28;20038;-85
2022/08/18 03:21:59;;;;;;;13.25;8.90;;;512.90;2380.80;;;;;;4960453;28;20019;-88
2022/08/18 03:24:27;;;;;;;12.30;8.80;;;512.90;2380.80;;;;;;4960481;28;20117;-85
2022/08/18 03:26:58;;;;;;;13.60;8.35;;;537.60;2406.40;;;;;;4960266;28;20029;-87
2022/08/18 03:29:24;;;;;;;12.30;8.25;;;537.60;2406.40;;;;;;4960464;28;20019;-85
2022/08/18 03:31:50;;;;;;;12.10;9.25;;;512.90;2380.80;;;;;;4954594;29;20412;-84
2022/08/18 03:34:19;;;;;;;12.15;8.60;;;537.60;2406.40;;;;;;4940875;29;20034;-86
2022/08/18 03:36:46;;;;;;;10.15;8.15;;;512.90;2380.80;;;;;;4954850;28;20385;-87
2022/08/18 03:39:12;;;;;;;14.35;9.02;;;512.90;2380.80;;;;;;4959991;28;20034;-85
2022/08/18 03:41:42;;;;;;;13.07;8.50;;;512.80;2380.80;;;;;;4960009;28;20014;-88
2022/08/18 03:44:09;;;;;;;15.82;9.25;;;537.60;2406.40;;;;;;4959773;28;20037;-85
2022/08/18 03:46:35;;;;;;;13.30;8.52;;;512.90;2380.80;;;;;;4959599;28;20015;-86
2022/08/18 03:49:02;;;;;;;17.33;9.38;;;512.60;2380.80;;;;;;4959655;28;20023;-86
2022/08/18 03:51:31;;;;;;;11.57;8.40;;;512.30;2380.80;;;;;;4959410;28;20046;-84
2022/08/18 03:53:59;;;;;;;10.68;8.73;;;512.60;2380.80;;;;;;4959673;28;20033;-88
2022/08/18 03:56:32;;;;;;;13.70;8.73;;;512.50;2380.80;;;;;;4959965;28;20428;-86
2022/08/18 03:59:02;;;;;;;11.85;7.90;;;512.60;2380.80;;;;;;4959753;28;20122;-84
2022/08/18 04:01:31;;;;;;;11.65;8.60;;;512.70;2380.80;;;;;;4959884;28;20073;-87
2022/08/18 04:04:03;;;;;;;11.02;8.07;;;512.60;2380.80;;;;;;4959603;28;20069;-86
2022/08/18 04:06:41;;;;;;;16.38;8.18;;;512.60;2380.80;;;;;;4959570;28;20023;-86
2022/08/18 04:09:13;;;;;;;15.35;8.75;;;512.60;2380.80;;;;;;4959459;28;20357;-87
2022/08/18 04:11:42;;;;;;;22.70;9.75;;;512.70;2380.80;;;;;;4959467;28;20043;-85
2022/08/18 04:14:09;;;;;;;12.50;9.55;;;512.80;2380.80;;;;;;4959421;28;20038;-86
2022/08/18 04:16:37;;;;;;;13.40;9.73;;;512.90;2380.80;;;;;;4959450;28;20019;-86
2022/08/18 04:19:03;;;;;;;17.27;10.27;;;486.60;2380.80;;;;;;4959303;28;20464;-87
2022/08/18 04:21:32;;;;;;;15.73;9.23;;;512.80;2380.80;;;;;;4959350;28;20027;-87
2022/08/18 04:24:03;;;;;;;16.00;9.15;;;512.90;2380.80;;;;;;4959311;28;20025;-85
2022/08/18 04:26:35;;;;;;;11.45;8.20;;;537.70;2406.40;;;;;;4959388;28;20019;-86
2022/08/18 04:29:01;;;;;;;12.27;8.37;;;537.70;2406.40;;;;;;4959475;28;20023;-86
2022/08/18 04:31:29;;;;;;;14.10;8.88;;;537.70;2406.40;;;;;;4959236;28;20027;-85
2022/08/18 04:33:57;;;;;;;9.63;7.43;;;537.70;2406.40;;;;;;4959134;28;20022;-88
2022/08/18 04:36:23;;;;;;;9.88;8.05;;;537.80;2406.40;;;;;;4959501;28;20062;-86
2022/08/18 04:38:50;;;;;;;13.25;8.07;;;537.80;2406.40;;;;;;4960932;28;20109;-88
2022/08/18 04:41:16;;;;;;;12.95;8.95;;;537.90;2406.40;;;;;;4959629;28;20019;-88
2022/08/18 04:43:43;;;;;;;14.60;8.80;;;537.90;2406.40;;;;;;4959137;28;20022;-85
2022/08/18 04:46:10;;;;;;;17.58;9.02;;;537.90;2406.40;;;;;;4958992;28;20551;-88
2022/08/18 04:48:40;;;;;;;16.50;8.82;;;537.80;2406.40;;;;;;4959331;28;20456;-84
2022/08/18 04:51:13;;;;;;;14.15;8.50;;;537.70;2406.40;;;;;;4958750;28;20464;-85
2022/08/18 04:53:46;;;;;;;13.27;8.80;;;537.90;2406.40;;;;;;4958842;28;20373;-89
2022/08/18 04:56:25;;;;;;;21.98;10.35;;;538.00;2406.40;;;;;;4959093;28;20026;-86
2022/08/18 04:58:58;;;;;;;13.60;9.32;;;538.00;2406.40;;;;;;4958800;28;20134;-86
2022/08/18 05:01:28;;;;;;;16.05;8.85;;;537.80;2406.40;;;;;;4958855;28;20030;-88
2022/08/18 05:03:57;;;;;;;15.90;9.50;;;537.90;2406.40;;;;;;4958641;28;20460;-89
2022/08/18 05:06:26;;;;;;;13.60;8.73;;;538.00;2406.40;;;;;;4958126;28;20031;-88
2022/08/18 05:08:58;;;;;;;12.63;8.80;;;537.90;2406.40;;;;;;4954964;28;20029;-84
2022/08/18 05:11:32;;;;;;;16.63;8.77;;;538.00;2406.40;;;;;;4959755;29;20028;-83
2022/08/18 05:13:58;;;;;;;13.25;8.65;;;538.10;2406.40;;;;;;4962602;29;20019;-84
2022/08/18 05:16:25;;;;;;;15.15;8.57;;;538.10;2406.40;;;;;;4965610;28;20038;-84
2022/08/18 05:18:54;;;;;;;12.15;8.57;;;538.20;2406.40;;;;;;4967800;28;20018;-86
2022/08/18 05:21:21;;;;;;;14.38;8.68;;;538.20;2406.40;;;;;;4951027;28;20020;-84
2022/08/18 05:23:49;;;;;;;14.85;8.07;;;538.30;2406.40;;;;;;4960351;28;20022;-87
2022/08/18 05:26:16;;;;;;;14.55;8.73;;;538.30;2406.40;;;;;;4958041;28;20014;-88
2022/08/18 05:28:43;;;;;;;14.68;8.05;;;538.40;2406.40;;;;;;4949683;29;20039;-85
2022/08/18 05:31:18;;;;;;;13.52;8.40;;;538.40;2406.40;;;;;;4939307;28;20015;-84
2022/08/18 05:33:46;;;;;;;17.48;9.35;;;538.50;2406.40;;;;;;4939607;29;20019;-85
2022/08/18 05:36:24;;;;;;;12.00;8.18;;;563.20;2432.00;;;;;;4944612;28;20435;-91
2022/08/18 05:38:58;;;;;;;13.18;8.13;;;;;;;;;;4958131;28;20460;-87
2022/08/18 05:41:34;;;;;;;21.08;8.48;;;;;;;;;;4958534;28;20457;-85
2022/08/18 05:44:01;;;;;;;12.30;7.60;;;;;;;;;;4958565;28;20019;-88
2022/08/18 05:46:44;;;;;;;16.30;7.88;;;;;;;;;;4958237;28;20059;-86
2022/08/18 05:49:12;;;;;;;15.93;8.73;;;563.40;2432.00;;;;;;4962872;28;20030;-85
2022/08/18 05:51:44;;;;;;;13.63;8.73;;;563.40;2432.00;;;;;;4964547;28;20033;-85
2022/08/18 05:56:59;;;;;;;13.43;8.27;;;563.40;2432.00;;;;;;4975834;28;20081;-87
2022/08/18 05:59:37;;;;;;;13.93;8.23;;;563.50;2432.00;;;;;;4958057;28;20071;-85
2022/08/18 06:02:24;;;;;;;13.90;8.88;;;563.50;2432.00;;;;;;4958717;28;20452;-87
2022/08/18 06:05:41;;;;;;;12.70;8.10;;;563.50;2432.00;;;;;;4958264;28;20093;-86
2022/08/18 06:08:11;;;;;;;20.42;8.80;;;563.50;2432.00;;;;;;4881325;29;20545;-88
2022/08/18 06:10:40;;;;;;;13.85;7.80;;;563.50;2432.00;;;;;;4881533;29;20172;-85
2022/08/18 06:13:09;;;;;;;10.70;8.02;;;563.60;2432.00;;;;;;4927453;28;20042;-86
2022/08/18 06:15:44;;;;;;;14.27;7.57;;;563.60;2432.00;;;;;;4960056;28;20065;-88
2022/08/18 06:18:28;;;;;;;13.90;8.20;;;563.70;2432.00;;;;;;4961847;28;20058;-85
2022/08/18 06:21:26;;;;;;;13.85;7.63;;;563.80;2432.00;;;;;;4961295;28;20027;-86
2022/08/18 06:24:06;;;;;;;13.23;7.97;;;564.00;2432.00;;;;;;4961491;28;20025;-85
2022/08/18 06:27:08;;;;;;;10.18;8.20;;;564.10;2432.00;;;;;;4961698;28;20073;-85
2022/08/18 06:30:03;;;;;;;15.35;7.93;;;564.10;2432.00;;;;;;4884349;29;20518;-88
2022/08/18 06:32:56;;;;;;;16.50;8.35;;;588.80;2432.00;;;;;;4960526;28;20117;-88
2022/08/18 06:35:49;;;;;;;15.18;9.85;;;588.90;2432.00;;;;;;4961458;28;20046;-86
2022/08/18 06:38:39;;;;;;;11.95;7.90;;;589.00;2432.00;;;;;;4952627;28;20113;-85
2022/08/18 06:41:19;;;;;;;12.30;8.48;;;589.10;2432.00;;;;;;4961324;28;20027;-86
2022/08/18 06:43:59;;;;;;;14.88;8.23;;;589.20;2432.00;;;;;;4961329;28;20078;-85
2022/08/18 06:46:39;;;;;;;13.88;7.60;;;589.40;2432.00;;;;;;4961220;28;20022;-87
2022/08/18 06:49:10;;;;;;;15.00;8.20;;;589.40;2432.00;;;;;;4961192;28;20027;-86
2022/08/18 06:51:37;;;;;;;12.30;7.82;;;589.60;2432.00;;;;;;4961352;28;20031;-83
2022/08/18 06:54:26;;;;;;;13.32;7.32;;;589.70;2432.00;;;;;;4960415;28;20026;-83
2022/08/18 06:56:55;;;;;;;11.18;8.20;;;614.40;2432.00;;;;;;4960684;28;20065;-86
2022/08/18 06:59:26;;;;;;;9.82;7.55;;;614.40;2432.00;;;;;;4960646;28;20039;-82
2022/08/18 07:02:21;;;;;;;15.25;9.10;;;614.60;2432.00;;;;;;4960344;28;20019;-83
2022/08/18 07:05:19;;;;;;;15.15;7.60;;;614.60;2432.00;;;;;;4960197;28;20029;-83
2022/08/18 07:07:59;;;;;;;18.52;8.18;;;614.80;2432.00;;;;;;4960501;28;20475;-86
2022/08/18 07:10:31;;;;;;;13.45;7.25;;;614.80;2432.00;;;;;;4959952;28;20031;-81
2022/08/18 07:13:18;;;;;;;11.23;7.40;;;615.00;2432.00;;;;;;4960029;28;20070;-87
2022/08/18 07:15:44;;;;;;;10.63;7.97;;;615.10;2432.00;;;;;;4960275;28;20022;-84
2022/08/18 07:18:12;;;;;;;9.45;7.22;;;615.10;2432.00;;;;;;4977059;28;20419;-82
2022/08/18 07:20:45;;;;;;;14.80;8.40;;;615.30;2432.00;;;;;;4959282;28;20466;-84
2022/08/18 07:23:37;;;;;;;13.02;7.82;;;640.00;2432.00;;;;;;4957451;28;20031;-82
2022/08/18 07:26:12;;;;;;;9.98;7.93;;;640.10;2432.00;;;;;;4966973;28;20037;-83
2022/08/18 07:28:51;;;;;;;10.52;7.10;;;640.20;2432.00;;;;;;4955046;28;20170;-80
2022/08/18 07:31:23;;;;;;;16.92;9.85;;;640.40;2432.00;;;;;;4961396;28;20020;-82
2022/08/18 07:34:17;;;;;;;13.55;7.88;;;640.60;2432.00;;;;;;4957588;28;20018;-80
2022/08/18 07:36:51;;;;;;;18.13;9.50;;;640.90;2432.00;;;;;;4944846;28;20031;-81
2022/08/18 07:39:54;;;;;;;16.58;8.23;;;665.60;2432.00;;;;;;4945258;29;20027;-81
2022/08/18 07:42:26;;;;;;;;;;;665.90;2432.00;;;;;;4951788;29;20035;-82
2022/08/18 07:45:04;;;;;;;11.33;6.33;;;666.00;2432.00;;;;;;4939868;29;19902;-82
2022/08/18 07:48:08;;;;;;;9.88;6.82;;;666.30;2432.00;;;;;;4947035;28;20022;-81
2022/08/18 07:50:42;;;;;;;10.32;9.18;;;666.40;2432.00;;;;;;4949396;28;20030;-80
2022/08/18 07:53:36;;;;;;;11.40;7.45;;;666.40;2432.00;;;;;;4959124;28;20027;-81
2022/08/18 07:56:12;;;;;;;13.45;7.20;;;691.30;2432.00;;;;;;4959116;28;20030;-81
2022/08/18 07:59:03;;;;;;;10.13;7.82;;;691.60;2432.00;;;;;;4958595;28;20573;-81
2022/08/18 08:01:58;;;;;;;13.88;9.65;;;691.60;2432.00;;;;;;4959012;28;20022;-81
2022/08/18 08:04:30;;;;;;;10.50;6.95;;;;;;;;;;4950875;28;20126;-82
2022/08/18 08:07:04;;;;;;;9.75;6.30;;;;;;;;;;4976103;28;20078;-82
2022/08/18 08:09:36;;;;;;;15.10;6.93;;;;;;;;;;4959313;28;20042;-84
2022/08/18 08:12:23;;;;;;;11.00;7.70;;;;;;;;;;4955001;28;20039;-83
2022/08/18 08:14:50;;;;;;;12.00;8.13;;;;;;;;;;4936570;29;20465;-82
2022/08/18 08:17:17;;;;;;;8.77;6.97;;;;;;;;;;4943790;29;20019;-84
2022/08/18 08:19:49;;;;;;;10.82;7.00;;;;;;;;;;4943133;28;20023;-83
2022/08/18 08:22:31;;;;;;;13.82;10.32;;;717.00;2432.00;;;;;;4975823;28;20034;-82
2022/08/18 08:24:57;;;;;;;;;;;;;;;;;;4959172;28;20026;-85
2022/08/18 08:27:33;;;;;;;14.13;10.63;;;;;;;;;;4957701;28;19914;-86
2022/08/18 08:30:06;;;;;;;12.68;11.15;;;;;;;;;;4958705;28;20022;-85
2022/08/18 08:32:37;;;;;;;11.88;9.18;;;;;;;;;;4953037;28;20014;-86
2022/08/18 08:35:26;;;;;;;13.80;8.45;;;;;;;;;;4957450;28;20026;-85
2022/08/18 08:37:56;;;;;;;11.48;7.80;;;;;;;;;;4953583;28;20023;-86
2022/08/18 08:40:42;;;;;;;12.65;7.65;;;;;;;;;;4958758;28;20026;-85
2022/08/18 08:43:10;;;;;;;12.07;8.90;;;;;;;;;;4957946;28;20449;-84
2022/08/18 08:45:39;;;;;;;13.77;7.32;;;;;;;;;;4952203;29;20098;-85
2022/08/18 08:48:23;;;;;;;10.52;7.90;;;;;;;;;;4955361;28;20050;-85
2022/08/18 08:51:01;;;;;;;12.15;8.93;;;;;;;;;;4953238;28;20034;-83
2022/08/18 08:53:27;;;;;;;11.63;6.28;;;;;;;;;;4953125;28;20038;-84
2022/08/18 08:55:56;;;;;;;10.93;7.28;;;;;;;;;;4956579;28;20030;-85
2022/08/18 08:58:25;;;;;;;11.45;7.22;;;;;;;;;;4953232;28;20026;-84
2022/08/18 09:00:55;;;;;;;9.32;6.20;;;;;;;;;;4949456;28;20023;-87
2022/08/18 09:03:33;;;;;;;9.45;6.22;;;;;;;;;;4940031;29;20457;-83
2022/08/18 09:06:03;;;;;;;8.82;5.32;;;;;;;;;;4938875;29;20027;-87
2022/08/18 09:08:38;;;;;;;9.18;5.47;;;;;;;;;;4942781;29;20142;-85
2022/08/18 09:11:25;;;;;;;9.77;6.20;;;;;;;;;;4938795;29;20358;-85
2022/08/18 09:14:03;;;;;;;8.38;6.15;;;;;;;;;;4938948;29;20043;-81
2022/08/18 09:16:38;;;;;;;10.18;5.85;;;;;;;;;;4953185;28;20011;-83
2022/08/18 09:19:12;;;;;;;8.45;5.93;;;;;;;;;;4962819;28;20031;-82
2022/08/18 09:21:38;;;;;;;11.07;6.20;;;;;;;;;;4961443;29;20028;-80
2022/08/18 09:24:23;;;;;;;8.88;6.20;;;;;;;;;;4946626;29;20070;-80
2022/08/18 09:26:51;;;;;;;11.68;6.28;;;;;;;;;;4942334;29;20088;-81
2022/08/18 09:29:47;;;;;;;10.00;6.90;;;;;;;;;;4939350;28;20031;-81
2022/08/18 09:32:24;;;;;;;11.18;6.60;;;;;;;;;;4942423;29;20027;-81
2022/08/18 09:35:06;;;;;;;12.05;6.00;;;;;;;;;;4939042;29;20477;-81
2022/08/18 09:37:42;;;;;;;9.70;6.07;;;;;;;;;;4938158;29;20469;-82
2022/08/18 09:43:08;;;;;;;11.88;5.70;;;;;;;;;;4957850;28;20089;-81
2022/08/18 09:45:34;;;;;;;7.95;6.15;;;;;;;;;;4956084;28;20094;-81
2022/08/18 09:48:22;;;;;;;7.13;5.03;;;;;;;;;;4938281;29;20079;-83
2022/08/18 09:51:00;;;;;;;9.95;5.45;;;;;;;;;;4941205;28;20118;-84
2022/08/18 09:53:37;;;;;;;10.75;5.03;;;;;;;;;;4961555;28;20029;-84
2022/08/18 09:56:04;;;;;;;8.65;5.03;;;;;;;;;;4961767;28;20050;-82
2022/08/18 09:58:33;;;;;;;11.18;5.28;;;;;;;;;;4978637;28;20046;-86
2022/08/18 10:01:38;;;;;;;9.75;5.53;;;;;;;;;;4961991;28;20031;-86
2022/08/18 10:04:13;;;;;;;8.20;5.40;;;;;;;;;;4866276;29;20371;-88
2022/08/18 10:06:41;;;;;;;8.57;5.22;;;845.10;1920.00;;;;;;4866126;29;20028;-87
2022/08/18 10:09:31;;;;;;;8.02;5.75;;;844.80;1920.00;;;;;;4918377;28;20041;-87
2022/08/18 10:12:24;;;;;;;10.10;6.05;;;844.80;1945.60;;;;;;4960119;28;20380;-85
2022/08/18 10:15:13;;;;;;;8.07;6.30;;;820.10;1920.00;;;;;;4965568;28;20022;-85
2022/08/18 10:17:43;;;;;;;7.70;5.80;;;845.20;1945.60;;;;;;4964805;28;20085;-84
2022/08/18 10:20:48;;;;;;;14.00;10.05;;;845.20;1920.00;;;;;;4961807;28;20031;-84
2022/08/18 10:23:43;;;;;;;15.23;11.98;;;845.50;1945.60;;;;;;4964529;28;20038;-85
2022/08/18 10:26:28;;;;;;;7.78;5.13;;;;;;;;;;4951179;28;20496;-84
2022/08/18 10:28:56;;;;;;;13.93;7.95;;;;;;;;;;4961870;28;20023;-86
2022/08/18 10:31:22;;;;;;;10.05;6.05;;;;;;;;;;4979363;28;20027;-84
2022/08/18 10:33:57;;;;;;;11.05;6.97;;;;;;;;;;4985872;28;20019;-83
2022/08/18 10:36:39;;;;;;;10.80;8.20;;;;;;;;;;4986460;28;20456;-81
2022/08/18 10:39:26;;;;;;;6.03;5.20;;;;;;;;;;4982852;28;20033;-83
2022/08/18 10:42:18;;;;;;;9.68;6.35;;;;;;;;;;4979778;28;20463;-83
2022/08/18 10:44:45;;;;;;;6.97;5.57;;;;;;;;;;4975387;28;20034;-84
2022/08/18 10:47:24;;;;;;;12.70;5.90;;;;;;;;;;4979837;28;20030;-81
2022/08/18 10:49:50;;;;;;;5.78;4.85;;;;;;;;;;4979955;28;20022;-83
2022/08/18 10:52:39;;;;;;;9.55;4.57;;;;;;;;;;4979479;28;20105;-83
2022/08/18 10:55:27;;;;;;;6.97;4.25;;;;;;;;;;4979403;28;20026;-81
2022/08/18 10:58:08;;;;;;;5.65;4.40;;;;;;;;;;4979594;28;20029;-83
2022/08/18 11:00:40;;;;;;;6.30;3.97;;;;;;;;;;4979556;28;20108;-83
2022/08/18 11:03:13;;;;;;;8.73;4.10;;;;;;;;;;4978576;28;20029;-83
2022/08/18 11:05:41;;;;;;;10.00;5.47;;;;;;;;;;4979483;28;20026;-85
2022/08/18 11:08:12;;;;;;;7.65;4.32;;;;;;;;;;4979220;28;20531;-85
2022/08/18 11:10:47;;;;;;;8.33;6.57;;;;;;;;;;4979491;28;20065;-84
2022/08/18 11:13:31;;;;;;;11.30;4.72;;;;;;;;;;4979524;28;20383;-84
2022/08/18 11:16:02;;;;;;;11.40;4.53;;;;;;;;;;4979433;28;20030;-81
2022/08/18 11:18:32;;;;;;;6.05;3.55;;;;;;;;;;4979051;28;20022;-83
2022/08/18 11:21:17;;;;;;;8.23;3.83;;;;;;;;;;4978924;28;20037;-84
2022/08/18 11:23:43;;;;;;;6.68;4.00;;;;;;;;;;4965062;28;20025;-82
2022/08/18 11:26:13;;;;;;;7.75;3.80;;;;;;;;;;4960088;28;20065;-82
2022/08/18 11:28:39;;;;;;;8.65;4.30;;;;;;;;;;4959759;28;20019;-84
2022/08/18 11:31:06;;;;;;;6.97;4.57;;;;;;;;;;4959904;28;20027;-81
2022/08/18 11:33:32;;;;;;;4.63;3.13;;;;;;;;;;4959922;28;20026;-82
2022/08/18 11:35:58;;;;;;;8.05;4.60;;;;;;;;;;4959821;28;20402;-80
2022/08/18 11:38:27;;;;;;;6.85;4.00;;;;;;;;;;4959368;28;20026;-83
2022/08/18 11:41:12;;;;;;;5.82;3.28;;;;;;;;;;4959260;28;20535;-82
2022/08/18 11:43:38;;;;;;;6.43;3.70;;;;;;;;;;4959212;28;20033;-85
2022/08/18 11:46:19;;;;;;;6.55;4.25;;;;;;;;;;4959882;28;20022;-85
2022/08/18 11:48:45;;;;;;;;;;;;;;;;;;4957700;28;20027;-86
2022/08/18 11:51:28;;;;;;;5.55;4.45;;;;;;;;;;4957060;28;19914;-83
2022/08/18 11:54:00;;;;;;;7.35;3.65;;;;;;;;;;4948655;29;20019;-85
2022/08/18 11:56:28;;;;;;;6.45;3.97;;;;;;;;;;4946210;29;20106;-83
2022/08/18 11:58:58;;;;;;;4.82;3.40;;;;;;;;;;4949987;28;20034;-87
2022/08/18 12:01:43;;;;;;;4.22;3.35;;;;;;;;;;4940190;29;20015;-82
2022/08/18 12:04:15;;;;;;;6.85;3.53;;;;;;;;;;4950255;29;20023;-81
2022/08/18 12:06:44;;;;;;;5.47;3.60;;;;;;;;;;4939755;29;20474;-83
2022/08/18 12:09:20;;;;;;;6.65;3.75;;;;;;;;;;4956278;28;20063;-82
2022/08/18 12:11:55;;;;;;;5.63;3.53;;;;;;;;;;4952960;28;20043;-83
2022/08/18 12:14:23;;;;;;;6.60;3.50;;;;;;;;;;4958115;28;20523;-83
2022/08/18 12:16:49;;;;;;;5.07;3.53;;;;;;;;;;4958665;28;20041;-83
2022/08/18 12:19:16;;;;;;;4.30;3.10;;;;;;;;;;4958418;28;20022;-84
2022/08/18 12:21:49;;;;;;;5.22;3.45;;;;;;;;;;4958334;28;20026;-84
2022/08/18 12:24:35;;;;;;;5.78;3.80;;;;;;;;;;4954677;28;20456;-85
2022/08/18 12:27:01;;;;;;;6.15;3.63;;;;;;;;;;4958478;28;20105;-86
2022/08/18 12:29:30;;;;;;;6.22;3.25;;;;;;;;;;4957017;28;20026;-82
2022/08/18 12:31:56;;;;;;;4.43;3.40;;;;;;;;;;4951252;29;20023;-83
2022/08/18 12:34:24;;;;;;;5.97;3.67;;;;;;;;;;4964400;28;20026;-83
2022/08/18 12:36:52;;;;;;;6.10;4.30;;;;;;;;;;4956131;28;20022;-80
2022/08/18 12:39:23;;;;;;;5.45;4.03;;;;;;;;;;4955922;28;20023;-81
2022/08/18 12:41:50;;;;;;;5.40;3.78;;;;;;;;;;4939886;29;20413;-81
2022/08/18 12:44:16;;;;;;;8.15;3.97;;;;;;;;;;4946059;28;20054;-82
2022/08/18 12:46:42;;;;;;;6.88;4.22;;;;;;;;;;4957588;28;20016;-84
2022/08/18 12:49:16;;;;;;;8.25;5.22;;;;;;;;;;4949752;28;20053;-82
2022/08/18 12:51:43;;;;;;;6.75;4.53;;;;;;;;;;4957960;28;20106;-85
2022/08/18 12:54:09;;;;;;;6.63;3.60;;;;;;;;;;4951865;29;20022;-84
2022/08/18 12:56:36;;;;;;;5.10;4.20;;;;;;;;;;4949597;28;20356;-86
2022/08/18 12:59:04;;;;;;;6.15;4.18;;;;;;;;;;4958324;28;20026;-84
2022/08/18 13:01:30;;;;;;;5.20;4.00;;;;;;;;;;4958587;28;20026;-85
2022/08/18 13:03:58;;;;;;;5.18;3.88;;;;;;;;;;4958527;28;20105;-87
2022/08/18 13:06:24;;;;;;;6.95;4.38;;;;;;;;;;4950823;29;20055;-86
2022/08/18 13:08:51;;;;;;;7.32;3.65;;;;;;;;;;4939235;29;20472;-83
2022/08/18 13:11:18;;;;;;;6.35;4.50;;;;;;;;;;4953880;28;21876;-83
2022/08/18 13:13:45;;;;;;;6.32;3.45;;;;;;;;;;4947201;28;20078;-83
2022/08/18 13:16:12;;;;;;;5.93;3.30;;;;;;;;;;4939314;29;20058;-87
2022/08/18 13:18:40;;;;;;;7.05;3.10;;;;;;;;;;4942201;29;20031;-86
2022/08/18 13:21:07;;;;;;;7.05;3.40;;;;;;;;;;4953124;28;20537;-84
2022/08/18 13:23:33;;;;;;;6.85;3.63;;;;;;;;;;4958108;28;20621;-86
2022/08/18 13:26:01;;;;;;;4.13;3.20;;;;;;;;;;4957729;28;20023;-85
2022/08/18 13:28:28;;;;;;;10.40;4.20;;;;;;;;;;4958445;28;20022;-89
2022/08/18 13:30:54;;;;;;;5.50;3.70;;;;;;;;;;4958631;28;20023;-82
2022/08/18 13:33:20;;;;;;;5.22;3.28;;;;;;;;;;4958546;28;20049;-83
2022/08/18 13:35:46;;;;;;;5.60;3.30;;;;;;;;;;4958128;28;20019;-85
2022/08/18 13:38:14;;;;;;;5.78;3.00;;;998.50;1459.20;;;;;;4958010;28;20050;-85
2022/08/18 13:40:41;;;;;;;5.82;3.20;;;973.60;1484.80;;;;;;4955405;28;20027;-86
2022/08/18 13:43:08;;;;;;;5.18;2.97;;;973.70;1484.80;;;;;;4958206;28;20019;-86
2022/08/18 13:45:34;;;;;;;6.82;3.28;;;973.20;1459.20;;;;;;4961926;28;20037;-85
2022/08/18 13:48:00;;;;;;;4.22;3.08;;;973.70;1510.40;;;;;;4954585;29;20016;-86